sensor_id;sensor_type;location;lat;lon;timestamp;pressure;altitude;pressure_sealevel;temperature;humidity
70434;BME280;57876;47.792;12.960;2023-07-28T00:00:32;96247.59;;;18.57;61.62
70434;BME280;57876;47.792;12.960;2023-07-28T00:02:56;96245.19;;;18.55;61.64
70434;BME280;57876;47.792;12.960;2023-07-28T00:05:21;96236.19;;;18.55;61.56
70434;BME280;57876;47.792;12.960;2023-07-28T00:07:45;96235.38;;;18.54;61.75
70434;BME280;57876;47.792;12.960;2023-07-28T00:10:10;96235.03;;;18.56;61.77
70434;BME280;57876;47.792;12.960;2023-07-28T00:12:35;96239.72;;;18.55;61.81
70434;BME280;57876;47.792;12.960;2023-07-28T00:14:59;96235.38;;;18.54;61.84
70434;BME280;57876;47.792;12.960;2023-07-28T00:17:24;96227.19;;;18.54;61.51
70434;BME280;57876;47.792;12.960;2023-07-28T00:19:48;96236.97;;;18.55;61.69
70434;BME280;57876;47.792;12.960;2023-07-28T00:22:12;96228.75;;;18.55;61.81
70434;BME280;57876;47.792;12.960;2023-07-28T00:24:37;96221.69;;;18.54;61.68
70434;BME280;57876;47.792;12.960;2023-07-28T00:27:01;96215.06;;;18.55;61.34
70434;BME280;57876;47.792;12.960;2023-07-28T00:29:26;96220.53;;;18.55;61.51
70434;BME280;57876;47.792;12.960;2023-07-28T00:31:50;96213.47;;;18.54;61.65
70434;BME280;57876;47.792;12.960;2023-07-28T00:34:14;96217.81;;;18.55;61.51
70434;BME280;57876;47.792;12.960;2023-07-28T00:36:39;96210.75;;;18.54;61.73
70434;BME280;57876;47.792;12.960;2023-07-28T00:39:05;96212.31;;;18.55;61.79
70434;BME280;57876;47.792;12.960;2023-07-28T00:41:29;96206.06;;;18.55;61.59
70434;BME280;57876;47.792;12.960;2023-07-28T00:43:54;96213.47;;;18.54;61.76
70434;BME280;57876;47.792;12.960;2023-07-28T00:46:18;96214.28;;;18.55;61.65
70434;BME280;57876;47.792;12.960;2023-07-28T00:48:43;96218.16;;;18.54;61.50
70434;BME280;57876;47.792;12.960;2023-07-28T00:51:09;96224.06;;;18.56;61.49
70434;BME280;57876;47.792;12.960;2023-07-28T00:53:34;96223.28;;;18.55;61.58
70434;BME280;57876;47.792;12.960;2023-07-28T00:55:58;96217.34;;;18.53;61.45
70434;BME280;57876;47.792;12.960;2023-07-28T00:58:23;96221.69;;;18.54;61.72
70434;BME280;57876;47.792;12.960;2023-07-28T01:00:47;96217.34;;;18.53;61.67
70434;BME280;57876;47.792;12.960;2023-07-28T01:03:13;96210.75;;;18.54;61.73
70434;BME280;57876;47.792;12.960;2023-07-28T01:05:58;96214.59;;;18.53;61.67
70434;BME280;57876;47.792;12.960;2023-07-28T01:08:34;96218.97;;;18.54;61.41
70434;BME280;57876;47.792;12.960;2023-07-28T01:10:59;96218.97;;;18.54;61.63
70434;BME280;57876;47.792;12.960;2023-07-28T01:13:23;96211.88;;;18.53;61.57
70434;BME280;57876;47.792;12.960;2023-07-28T01:15:48;96217.81;;;18.55;61.62
70434;BME280;57876;47.792;12.960;2023-07-28T01:18:12;96212.31;;;18.55;61.54
70434;BME280;57876;47.792;12.960;2023-07-28T01:20:37;96213.47;;;18.54;61.65
70434;BME280;57876;47.792;12.960;2023-07-28T01:23:07;96218.59;;;18.56;61.53
70434;BME280;57876;47.792;12.960;2023-07-28T01:28:22;96214.28;;;18.55;61.59
70434;BME280;57876;47.792;12.960;2023-07-28T01:30:47;96209.13;;;18.53;61.62
70434;BME280;57876;47.792;12.960;2023-07-28T01:33:11;96211.88;;;18.53;61.61
70434;BME280;57876;47.792;12.960;2023-07-28T01:35:36;96221.69;;;18.54;61.17
70434;BME280;57876;47.792;12.960;2023-07-28T01:38:04;96226.38;;;18.54;61.62
70434;BME280;57876;47.792;12.960;2023-07-28T01:40:28;96227.97;;;18.55;62.03
70434;BME280;57876;47.792;12.960;2023-07-28T01:42:53;96220.09;;;18.53;61.76
70434;BME280;57876;47.792;12.960;2023-07-28T01:45:17;96221.25;;;18.52;61.44
70434;BME280;57876;47.792;12.960;2023-07-28T01:47:42;96223.97;;;18.52;61.72
70434;BME280;57876;47.792;12.960;2023-07-28T01:50:06;96226.72;;;18.52;61.72
70434;BME280;57876;47.792;12.960;2023-07-28T01:52:31;96229.47;;;18.52;61.58
70434;BME280;57876;47.792;12.960;2023-07-28T01:54:55;96231.88;;;18.54;61.54
70434;BME280;57876;47.792;12.960;2023-07-28T01:57:20;96222.81;;;18.53;61.66
70434;BME280;57876;47.792;12.960;2023-07-28T01:59:44;96227.97;;;18.55;61.60
70434;BME280;57876;47.792;12.960;2023-07-28T02:02:09;96226.38;;;18.54;61.53
70434;BME280;57876;47.792;12.960;2023-07-28T02:04:33;96231.03;;;18.53;61.61
70434;BME280;57876;47.792;12.960;2023-07-28T02:06:58;96234.59;;;18.54;61.46
70434;BME280;57876;47.792;12.960;2023-07-28T02:09:22;96241.66;;;18.55;61.55
70434;BME280;57876;47.792;12.960;2023-07-28T02:11:46;96245.91;;;18.52;61.68
70434;BME280;57876;47.792;12.960;2023-07-28T02:14:11;96237.34;;;18.54;61.58
70434;BME280;57876;47.792;12.960;2023-07-28T02:16:35;96243.59;;;18.54;61.49
70434;BME280;57876;47.792;12.960;2023-07-28T02:18:59;96240.88;;;18.54;61.57
70434;BME280;57876;47.792;12.960;2023-07-28T02:21:24;96242.81;;;18.54;61.30
70434;BME280;57876;47.792;12.960;2023-07-28T02:23:48;96244.72;;;18.53;61.49
70434;BME280;57876;47.792;12.960;2023-07-28T02:26:13;96242.00;;;18.53;61.63
70434;BME280;57876;47.792;12.960;2023-07-28T02:28:37;96236.53;;;18.53;61.70
70434;BME280;57876;47.792;12.960;2023-07-28T02:31:02;96239.25;;;18.53;61.55
70434;BME280;57876;47.792;12.960;2023-07-28T02:33:27;96243.59;;;18.54;61.64
70434;BME280;57876;47.792;12.960;2023-07-28T02:35:53;96245.56;;;18.54;61.42
70434;BME280;57876;47.792;12.960;2023-07-28T02:38:17;96239.25;;;18.53;61.59
70434;BME280;57876;47.792;12.960;2023-07-28T02:40:42;96238.47;;;18.53;61.57
70434;BME280;57876;47.792;12.960;2023-07-28T02:43:07;96234.94;;;18.52;61.66
70434;BME280;57876;47.792;12.960;2023-07-28T02:45:31;96241.22;;;18.53;61.50
70434;BME280;57876;47.792;12.960;2023-07-28T02:47:55;96241.22;;;18.53;61.44
70434;BME280;57876;47.792;12.960;2023-07-28T02:50:20;96239.63;;;18.52;61.60
70434;BME280;57876;47.792;12.960;2023-07-28T02:52:45;96245.91;;;18.52;61.55
70434;BME280;57876;47.792;12.960;2023-07-28T02:55:10;96245.91;;;18.52;61.59
70434;BME280;57876;47.792;12.960;2023-07-28T02:57:34;96242.69;;;18.50;61.78
70434;BME280;57876;47.792;12.960;2023-07-28T02:59:59;96248.63;;;18.52;61.40
70434;BME280;57876;47.792;12.960;2023-07-28T03:02:23;96240.41;;;18.52;61.58
70434;BME280;57876;47.792;12.960;2023-07-28T03:04:47;96247.47;;;18.53;61.74
70434;BME280;57876;47.792;12.960;2023-07-28T03:07:12;96247.84;;;18.52;61.61
70434;BME280;57876;47.792;12.960;2023-07-28T03:09:37;96248.63;;;18.52;61.66
70434;BME280;57876;47.792;12.960;2023-07-28T03:12:01;96245.09;;;18.52;61.52
70434;BME280;57876;47.792;12.960;2023-07-28T03:14:26;96250.22;;;18.53;61.42
70434;BME280;57876;47.792;12.960;2023-07-28T03:16:52;96258.00;;;18.51;61.62
70434;BME280;57876;47.792;12.960;2023-07-28T03:19:17;96261.16;;;18.53;61.61
70434;BME280;57876;47.792;12.960;2023-07-28T03:21:41;96265.06;;;18.52;61.57
70434;BME280;57876;47.792;12.960;2023-07-28T03:24:06;96264.28;;;18.52;61.68
70434;BME280;57876;47.792;12.960;2023-07-28T03:26:30;96267.00;;;18.52;61.63
70434;BME280;57876;47.792;12.960;2023-07-28T03:28:54;96267.81;;;18.52;61.76
70434;BME280;57876;47.792;12.960;2023-07-28T03:31:19;96262.31;;;18.52;61.49
70434;BME280;57876;47.792;12.960;2023-07-28T03:33:43;96262.31;;;18.52;61.33
70434;BME280;57876;47.792;12.960;2023-07-28T03:36:08;96255.25;;;18.51;62.00
70434;BME280;57876;47.792;12.960;2023-07-28T03:38:32;96262.66;;;18.51;61.39
70434;BME280;57876;47.792;12.960;2023-07-28T03:40:56;96263.47;;;18.51;61.44
70434;BME280;57876;47.792;12.960;2023-07-28T03:43:21;96267.00;;;18.52;61.88
70434;BME280;57876;47.792;12.960;2023-07-28T03:45:46;96272.50;;;18.52;61.64
70434;BME280;57876;47.792;12.960;2023-07-28T03:48:10;96288.13;;;18.51;61.54
70434;BME280;57876;47.792;12.960;2023-07-28T03:50:34;96279.09;;;18.51;61.56
70434;BME280;57876;47.792;12.960;2023-07-28T03:52:59;96273.28;;;18.52;61.62
70434;BME280;57876;47.792;12.960;2023-07-28T03:55:24;96280.34;;;18.53;61.46
70434;BME280;57876;47.792;12.960;2023-07-28T03:57:48;96278.75;;;18.52;61.52
70434;BME280;57876;47.792;12.960;2023-07-28T04:00:12;96267.81;;;18.52;61.49
70434;BME280;57876;47.792;12.960;2023-07-28T04:02:38;96277.97;;;18.52;61.47
70434;BME280;57876;47.792;12.960;2023-07-28T04:05:02;96275.22;;;18.52;61.68
70434;BME280;57876;47.792;12.960;2023-07-28T04:07:27;96276.00;;;18.52;61.54
70434;BME280;57876;47.792;12.960;2023-07-28T04:09:51;96276.00;;;18.52;61.48
70434;BME280;57876;47.792;12.960;2023-07-28T04:12:15;96274.44;;;18.51;61.56
70434;BME280;57876;47.792;12.960;2023-07-28T04:14:40;96272.50;;;18.52;61.62
70434;BME280;57876;47.792;12.960;2023-07-28T04:17:05;96275.22;;;18.52;61.47
70434;BME280;57876;47.792;12.960;2023-07-28T04:19:30;96269.75;;;18.52;61.53
70434;BME280;57876;47.792;12.960;2023-07-28T04:21:54;96267.34;;;18.50;61.52
70434;BME280;57876;47.792;12.960;2023-07-28T04:24:18;96273.28;;;18.52;61.49
70434;BME280;57876;47.792;12.960;2023-07-28T04:26:43;96268.97;;;18.51;61.50
70434;BME280;57876;47.792;12.960;2023-07-28T04:29:07;96271.69;;;18.51;61.54
70434;BME280;57876;47.792;12.960;2023-07-28T04:31:32;96274.44;;;18.51;61.59
70434;BME280;57876;47.792;12.960;2023-07-28T04:33:56;96284.22;;;18.52;61.29
70434;BME280;57876;47.792;12.960;2023-07-28T04:36:20;96282.66;;;18.51;61.39
70434;BME280;57876;47.792;12.960;2023-07-28T04:38:45;96266.88;;;18.48;61.61
70434;BME280;57876;47.792;12.960;2023-07-28T04:41:09;96273.28;;;18.52;61.62
70434;BME280;57876;47.792;12.960;2023-07-28T04:43:33;96267.81;;;18.52;61.46
70434;BME280;57876;47.792;12.960;2023-07-28T04:45:58;96270.53;;;18.52;61.34
70434;BME280;57876;47.792;12.960;2023-07-28T04:48:22;96267.00;;;18.52;61.41
70434;BME280;57876;47.792;12.960;2023-07-28T04:50:47;96264.28;;;18.52;61.79
70434;BME280;57876;47.792;12.960;2023-07-28T04:53:11;96266.22;;;18.51;61.52
70434;BME280;57876;47.792;12.960;2023-07-28T04:55:35;96267.81;;;18.52;61.78
70434;BME280;57876;47.792;12.960;2023-07-28T04:58:00;96260.75;;;18.51;61.54
70434;BME280;57876;47.792;12.960;2023-07-28T05:00:24;96248.19;;;18.50;61.55
70434;BME280;57876;47.792;12.960;2023-07-28T05:02:49;96265.84;;;18.53;61.63
70434;BME280;57876;47.792;12.960;2023-07-28T05:05:13;96264.28;;;18.52;61.46
70434;BME280;57876;47.792;12.960;2023-07-28T05:07:38;96256.06;;;18.52;61.44
70434;BME280;57876;47.792;12.960;2023-07-28T05:10:02;96265.84;;;18.53;61.51
70434;BME280;57876;47.792;12.960;2023-07-28T05:12:27;96268.59;;;18.53;61.60
70434;BME280;57876;47.792;12.960;2023-07-28T05:14:51;96256.84;;;18.52;61.41
70434;BME280;57876;47.792;12.960;2023-07-28T05:17:15;96253.31;;;18.52;61.54
70434;BME280;57876;47.792;12.960;2023-07-28T05:19:40;96265.06;;;18.52;61.49
70434;BME280;57876;47.792;12.960;2023-07-28T05:22:05;96256.84;;;18.52;61.66
70434;BME280;57876;47.792;12.960;2023-07-28T05:24:30;96263.91;;;18.53;61.42
70434;BME280;57876;47.792;12.960;2023-07-28T05:26:55;96267.81;;;18.52;61.45
70434;BME280;57876;47.792;12.960;2023-07-28T05:29:19;96257.63;;;18.53;61.58
70434;BME280;57876;47.792;12.960;2023-07-28T05:31:44;96261.16;;;18.53;61.49
70434;BME280;57876;47.792;12.960;2023-07-28T05:34:09;96263.91;;;18.53;61.57
70434;BME280;57876;47.792;12.960;2023-07-28T05:36:36;96259.59;;;18.52;61.54
70434;BME280;57876;47.792;12.960;2023-07-28T05:39:00;96250.56;;;18.52;61.69
70434;BME280;57876;47.792;12.960;2023-07-28T05:41:27;96257.63;;;18.53;61.58
70434;BME280;57876;47.792;12.960;2023-07-28T05:43:52;96258.78;;;18.52;61.54
70434;BME280;57876;47.792;12.960;2023-07-28T05:46:16;96265.50;;;18.54;61.29
70434;BME280;57876;47.792;12.960;2023-07-28T05:48:41;96260.03;;;18.54;61.46
70434;BME280;57876;47.792;12.960;2023-07-28T05:51:05;96263.13;;;18.53;61.33
70434;BME280;57876;47.792;12.960;2023-07-28T05:53:30;96257.63;;;18.53;61.42
70434;BME280;57876;47.792;12.960;2023-07-28T05:55:54;96262.31;;;18.52;61.45
70434;BME280;57876;47.792;12.960;2023-07-28T05:58:18;96274.84;;;18.53;61.54
70434;BME280;57876;47.792;12.960;2023-07-28T06:00:43;96271.78;;;18.55;61.24
70434;BME280;57876;47.792;12.960;2023-07-28T06:03:10;96269.38;;;18.53;61.46
70434;BME280;57876;47.792;12.960;2023-07-28T06:05:34;96265.06;;;18.52;61.45
70434;BME280;57876;47.792;12.960;2023-07-28T06:07:58;96275.31;;;18.55;61.40
70434;BME280;57876;47.792;12.960;2023-07-28T06:10:23;96272.50;;;18.52;61.57
70434;BME280;57876;47.792;12.960;2023-07-28T06:12:47;96264.72;;;18.54;61.53
70434;BME280;57876;47.792;12.960;2023-07-28T06:15:11;96275.69;;;18.54;61.38
70434;BME280;57876;47.792;12.960;2023-07-28T06:17:36;96285.47;;;18.55;61.48
70434;BME280;57876;47.792;12.960;2023-07-28T06:20:00;96283.53;;;18.55;61.53
70434;BME280;57876;47.792;12.960;2023-07-28T06:22:25;96292.13;;;18.54;61.41
70434;BME280;57876;47.792;12.960;2023-07-28T06:24:49;96281.94;;;18.54;61.43
70434;BME280;57876;47.792;12.960;2023-07-28T06:27:24;96290.97;;;18.55;61.55
70434;BME280;57876;47.792;12.960;2023-07-28T06:29:48;96299.97;;;18.55;61.51
70434;BME280;57876;47.792;12.960;2023-07-28T06:32:13;96301.91;;;18.55;61.46
70434;BME280;57876;47.792;12.960;2023-07-28T06:37:51;96318.25;;;18.51;61.58
70434;BME280;57876;47.792;12.960;2023-07-28T06:40:16;96335.56;;;18.55;61.55
70434;BME280;57876;47.792;12.960;2023-07-28T06:42:44;96335.13;;;18.53;61.39
70434;BME280;57876;47.792;12.960;2023-07-28T06:45:09;96341.03;;;18.55;61.45
70434;BME280;57876;47.792;12.960;2023-07-28T06:47:33;96336.72;;;18.54;61.42
70434;BME280;57876;47.792;12.960;2023-07-28T06:49:58;96346.53;;;18.55;61.41
70434;BME280;57876;47.792;12.960;2023-07-28T06:52:23;96349.25;;;18.55;61.39
70434;BME280;57876;47.792;12.960;2023-07-28T06:54:47;96358.63;;;18.54;61.57
70434;BME280;57876;47.792;12.960;2023-07-28T06:57:13;96355.91;;;18.54;61.54
70434;BME280;57876;47.792;12.960;2023-07-28T06:59:37;96359.44;;;18.55;61.56
70434;BME280;57876;47.792;12.960;2023-07-28T07:02:04;96361.38;;;18.54;61.50
70434;BME280;57876;47.792;12.960;2023-07-28T07:04:29;96362.50;;;18.53;61.50
70434;BME280;57876;47.792;12.960;2023-07-28T07:06:54;96366.84;;;18.54;61.49
70434;BME280;57876;47.792;12.960;2023-07-28T07:09:18;96366.47;;;18.56;61.25
70434;BME280;57876;47.792;12.960;2023-07-28T07:11:44;96363.31;;;18.54;61.54
70434;BME280;57876;47.792;12.960;2023-07-28T07:14:10;96362.16;;;18.55;61.52
70434;BME280;57876;47.792;12.960;2023-07-28T07:16:35;96365.22;;;18.53;61.50
70434;BME280;57876;47.792;12.960;2023-07-28T07:18:59;96373.91;;;18.55;61.53
70434;BME280;57876;47.792;12.960;2023-07-28T07:21:24;96362.94;;;18.55;61.56
70434;BME280;57876;47.792;12.960;2023-07-28T07:23:48;96365.44;;;18.60;61.40
70434;BME280;57876;47.792;12.960;2023-07-28T07:26:15;96362.63;;;18.57;61.56
70434;BME280;57876;47.792;12.960;2023-07-28T07:28:47;96367.72;;;18.58;61.43
70434;BME280;57876;47.792;12.960;2023-07-28T07:31:18;96367.72;;;18.58;61.52
70434;BME280;57876;47.792;12.960;2023-07-28T07:33:45;96366.47;;;18.56;61.49
70434;BME280;57876;47.792;12.960;2023-07-28T07:36:13;96370.94;;;18.60;61.36
70434;BME280;57876;47.792;12.960;2023-07-28T07:38:40;96370.47;;;18.58;61.65
70434;BME280;57876;47.792;12.960;2023-07-28T07:41:05;96382.59;;;18.57;61.57
70434;BME280;57876;47.792;12.960;2023-07-28T07:43:29;96373.56;;;18.57;61.39
70434;BME280;57876;47.792;12.960;2023-07-28T07:45:54;96377.56;;;18.59;61.56
70434;BME280;57876;47.792;12.960;2023-07-28T07:48:33;96372.41;;;18.58;61.48
70434;BME280;57876;47.792;12.960;2023-07-28T07:51:01;96381.88;;;18.60;61.50
70434;BME280;57876;47.792;12.960;2023-07-28T07:53:26;96385.41;;;18.61;61.37
70434;BME280;57876;47.792;12.960;2023-07-28T07:55:50;96386.91;;;18.58;61.46
70434;BME280;57876;47.792;12.960;2023-07-28T07:58:15;96383.38;;;18.58;61.39
70434;BME280;57876;47.792;12.960;2023-07-28T08:00:42;96386.91;;;18.58;61.57
70434;BME280;57876;47.792;12.960;2023-07-28T08:03:14;96394.66;;;18.56;61.68
70434;BME280;57876;47.792;12.960;2023-07-28T08:05:41;96398.66;;;18.59;61.36
70434;BME280;57876;47.792;12.960;2023-07-28T08:08:11;96389.31;;;18.60;61.36
70434;BME280;57876;47.792;12.960;2023-07-28T08:10:43;96392.84;;;18.60;61.47
70434;BME280;57876;47.792;12.960;2023-07-28T08:13:13;96390.56;;;18.62;61.41
70434;BME280;57876;47.792;12.960;2023-07-28T08:15:46;96383.84;;;18.60;61.59
70434;BME280;57876;47.792;12.960;2023-07-28T08:18:12;96388.53;;;18.59;61.54
70434;BME280;57876;47.792;12.960;2023-07-28T08:20:37;96384.63;;;18.60;61.63
70434;BME280;57876;47.792;12.960;2023-07-28T08:23:04;96387.81;;;18.62;61.54
70434;BME280;57876;47.792;12.960;2023-07-28T08:25:31;96377.56;;;18.59;61.32
70434;BME280;57876;47.792;12.960;2023-07-28T08:28:05;96383.03;;;18.59;61.38
70434;BME280;57876;47.792;12.960;2023-07-28T08:30:29;96383.03;;;18.59;61.48
70434;BME280;57876;47.792;12.960;2023-07-28T08:32:56;96384.63;;;18.60;61.52
70434;BME280;57876;47.792;12.960;2023-07-28T08:35:21;96369.78;;;18.61;61.42
70434;BME280;57876;47.792;12.960;2023-07-28T08:37:45;96370.22;;;18.63;61.54
70434;BME280;57876;47.792;12.960;2023-07-28T08:40:11;96374.59;;;18.64;61.57
70434;BME280;57876;47.792;12.960;2023-07-28T08:42:40;96369.34;;;18.59;61.53
70434;BME280;57876;47.792;12.960;2023-07-28T08:45:08;96375.25;;;18.61;61.50
70434;BME280;57876;47.792;12.960;2023-07-28T08:47:33;96372.88;;;18.60;61.54
70434;BME280;57876;47.792;12.960;2023-07-28T08:50:00;96373.66;;;18.60;61.42
70434;BME280;57876;47.792;12.960;2023-07-28T08:52:25;96375.16;;;18.58;61.82
70434;BME280;57876;47.792;12.960;2023-07-28T08:54:50;96373.66;;;18.60;61.55
70434;BME280;57876;47.792;12.960;2023-07-28T08:57:15;96359.06;;;18.56;61.47
70434;BME280;57876;47.792;12.960;2023-07-28T08:59:42;96366.94;;;18.58;61.50
70434;BME280;57876;47.792;12.960;2023-07-28T09:02:11;96368.88;;;18.57;61.47
70434;BME280;57876;47.792;12.960;2023-07-28T09:04:35;96357.22;;;18.60;61.68
70434;BME280;57876;47.792;12.960;2023-07-28T09:07:06;96357.16;;;18.57;61.74
70434;BME280;57876;47.792;12.960;2023-07-28T09:09:34;96350.06;;;18.56;61.65
70434;BME280;57876;47.792;12.960;2023-07-28T09:12:02;96364.66;;;18.60;61.49
70434;BME280;57876;47.792;12.960;2023-07-28T09:14:27;96339.88;;;18.56;61.61
70434;BME280;57876;47.792;12.960;2023-07-28T09:16:53;96354.84;;;18.59;61.52
70434;BME280;57876;47.792;12.960;2023-07-28T09:19:19;96345.38;;;18.56;61.53
70434;BME280;57876;47.792;12.960;2023-07-28T09:21:59;96342.28;;;18.58;61.52
70434;BME280;57876;47.792;12.960;2023-07-28T09:24:33;96352.09;;;18.59;61.52
70434;BME280;57876;47.792;12.960;2023-07-28T09:26:58;96352.47;;;18.57;61.55
70434;BME280;57876;47.792;12.960;2023-07-28T09:29:27;96345.81;;;18.58;61.54
70434;BME280;57876;47.792;12.960;2023-07-28T09:32:03;96340.34;;;18.58;61.60
70434;BME280;57876;47.792;12.960;2023-07-28T09:34:28;96343.78;;;18.55;61.73
70434;BME280;57876;47.792;12.960;2023-07-28T09:37:04;96329.28;;;18.55;61.63
70434;BME280;57876;47.792;12.960;2023-07-28T09:39:33;96326.56;;;18.55;61.50
70434;BME280;57876;47.792;12.960;2023-07-28T09:42:29;96329.63;;;18.53;61.51
70434;BME280;57876;47.792;12.960;2023-07-28T09:44:53;96329.28;;;18.55;61.57
70434;BME280;57876;47.792;12.960;2023-07-28T09:47:21;96311.28;;;18.54;61.53
70434;BME280;57876;47.792;12.960;2023-07-28T09:49:49;96322.66;;;18.56;61.57
70434;BME280;57876;47.792;12.960;2023-07-28T09:52:16;96330.53;;;18.57;61.47
70434;BME280;57876;47.792;12.960;2023-07-28T09:55:07;96313.19;;;18.53;61.68
70434;BME280;57876;47.792;12.960;2023-07-28T09:58:18;96307.72;;;18.53;61.69
70434;BME280;57876;47.792;12.960;2023-07-28T10:00:47;96310.47;;;18.53;61.68
70434;BME280;57876;47.792;12.960;2023-07-28T10:03:11;96309.34;;;18.54;61.79
70434;BME280;57876;47.792;12.960;2023-07-28T10:05:43;96312.50;;;18.56;61.62
70434;BME280;57876;47.792;12.960;2023-07-28T10:08:24;96309.34;;;18.54;61.64
70434;BME280;57876;47.792;12.960;2023-07-28T10:10:49;96305.91;;;18.57;61.90
70434;BME280;57876;47.792;12.960;2023-07-28T10:13:23;96291.75;;;18.55;61.42
70434;BME280;57876;47.792;12.960;2023-07-28T10:15:50;96298.38;;;18.54;61.89
70434;BME280;57876;47.792;12.960;2023-07-28T10:18:15;96299.97;;;18.55;61.82
70434;BME280;57876;47.792;12.960;2023-07-28T10:20:42;96303.16;;;18.57;61.62
70434;BME280;57876;47.792;12.960;2023-07-28T10:23:15;96299.97;;;18.55;61.54
70434;BME280;57876;47.792;12.960;2023-07-28T10:25:41;96311.81;;;18.59;61.60
70434;BME280;57876;47.792;12.960;2023-07-28T10:28:48;96306.22;;;18.56;61.46
70434;BME280;57876;47.792;12.960;2023-07-28T10:31:35;96295.28;;;18.56;61.55
70434;BME280;57876;47.792;12.960;2023-07-28T10:34:00;96305.19;;;18.60;61.64
70434;BME280;57876;47.792;12.960;2023-07-28T10:39:12;96302.00;;;18.58;61.54
70434;BME280;57876;47.792;12.960;2023-07-28T10:41:37;96295.41;;;18.59;61.56
70434;BME280;57876;47.792;12.960;2023-07-28T10:44:02;96293.78;;;18.58;61.69
70434;BME280;57876;47.792;12.960;2023-07-28T10:46:31;96302.00;;;18.58;61.58
70434;BME280;57876;47.792;12.960;2023-07-28T10:49:12;96305.91;;;18.57;61.50
70434;BME280;57876;47.792;12.960;2023-07-28T10:51:56;96310.22;;;18.58;61.55
70434;BME280;57876;47.792;12.960;2023-07-28T10:54:21;96307.84;;;18.57;61.62
70434;BME280;57876;47.792;12.960;2023-07-28T10:56:46;96310.22;;;18.58;61.47
70434;BME280;57876;47.792;12.960;2023-07-28T10:59:11;96310.22;;;18.58;61.56
70434;BME280;57876;47.792;12.960;2023-07-28T11:01:37;96311.00;;;18.59;61.54
70434;BME280;57876;47.792;12.960;2023-07-28T11:04:19;96310.22;;;18.58;61.70
70434;BME280;57876;47.792;12.960;2023-07-28T11:06:49;96300.06;;;18.59;61.61
70434;BME280;57876;47.792;12.960;2023-07-28T11:09:34;96303.63;;;18.59;61.62
70434;BME280;57876;47.792;12.960;2023-07-28T11:12:01;96305.91;;;18.57;61.75
70434;BME280;57876;47.792;12.960;2023-07-28T11:14:25;96300.88;;;18.59;61.69
70434;BME280;57876;47.792;12.960;2023-07-28T11:16:50;96297.31;;;18.59;61.67
70434;BME280;57876;47.792;12.960;2023-07-28T11:19:15;96311.81;;;18.59;61.69
70434;BME280;57876;47.792;12.960;2023-07-28T11:21:42;96303.94;;;18.58;61.56
70434;BME280;57876;47.792;12.960;2023-07-28T11:24:07;96300.06;;;18.59;61.51
70434;BME280;57876;47.792;12.960;2023-07-28T11:26:34;96306.34;;;18.59;61.67
70434;BME280;57876;47.792;12.960;2023-07-28T11:28:59;96309.09;;;18.59;61.58
70434;BME280;57876;47.792;12.960;2023-07-28T11:31:24;96311.81;;;18.59;61.63
70434;BME280;57876;47.792;12.960;2023-07-28T11:33:50;96314.56;;;18.59;61.69
70434;BME280;57876;47.792;12.960;2023-07-28T11:36:22;96311.81;;;18.59;61.61
70434;BME280;57876;47.792;12.960;2023-07-28T11:38:46;96319.22;;;18.59;61.61
70434;BME280;57876;47.792;12.960;2023-07-28T11:41:14;96314.13;;;18.57;61.53
70434;BME280;57876;47.792;12.960;2023-07-28T11:43:41;96312.50;;;18.56;61.64
70434;BME280;57876;47.792;12.960;2023-07-28T11:46:36;96318.09;;;18.60;61.70
70434;BME280;57876;47.792;12.960;2023-07-28T11:49:14;96323.13;;;18.58;61.66
70434;BME280;57876;47.792;12.960;2023-07-28T11:51:40;96315.69;;;18.58;61.88
70434;BME280;57876;47.792;12.960;2023-07-28T11:54:07;96321.19;;;18.58;61.63
70434;BME280;57876;47.792;12.960;2023-07-28T11:56:34;96315.59;;;18.55;61.58
70434;BME280;57876;47.792;12.960;2023-07-28T11:58:59;96323.03;;;18.54;61.60
70434;BME280;57876;47.792;12.960;2023-07-28T12:01:24;96323.81;;;18.55;61.92
70434;BME280;57876;47.792;12.960;2023-07-28T12:03:48;96326.19;;;18.56;61.64
70434;BME280;57876;47.792;12.960;2023-07-28T12:06:12;96331.66;;;18.56;61.81
70434;BME280;57876;47.792;12.960;2023-07-28T12:08:37;96332.13;;;18.58;61.77
70434;BME280;57876;47.792;12.960;2023-07-28T12:11:02;96334.53;;;18.60;61.63
70434;BME280;57876;47.792;12.960;2023-07-28T12:13:26;96328.59;;;18.58;61.56
70434;BME280;57876;47.792;12.960;2023-07-28T12:15:51;96327.81;;;18.57;61.30
70434;BME280;57876;47.792;12.960;2023-07-28T12:18:16;96333.75;;;18.59;61.50
70434;BME280;57876;47.792;12.960;2023-07-28T12:20:51;96333.38;;;18.61;61.55
70434;BME280;57876;47.792;12.960;2023-07-28T12:23:26;96329.06;;;18.60;61.73
70434;BME280;57876;47.792;12.960;2023-07-28T12:25:51;96343.22;;;18.62;61.62
70434;BME280;57876;47.792;12.960;2023-07-28T12:28:17;96336.91;;;18.61;61.53
70434;BME280;57876;47.792;12.960;2023-07-28T12:30:45;96325.16;;;18.61;61.49
70434;BME280;57876;47.792;12.960;2023-07-28T12:33:09;96335.41;;;18.64;61.50
70434;BME280;57876;47.792;12.960;2023-07-28T12:35:34;96335.41;;;18.64;61.59
70434;BME280;57876;47.792;12.960;2023-07-28T12:37:59;96336.22;;;18.64;61.87
70434;BME280;57876;47.792;12.960;2023-07-28T12:40:24;96329.16;;;18.63;61.57
70434;BME280;57876;47.792;12.960;2023-07-28T12:42:48;96334.16;;;18.61;61.62
70434;BME280;57876;47.792;12.960;2023-07-28T12:45:13;96329.16;;;18.63;61.82
70434;BME280;57876;47.792;12.960;2023-07-28T12:47:38;96322.16;;;18.66;61.63
70434;BME280;57876;47.792;12.960;2023-07-28T12:50:03;96315.00;;;18.61;61.91
70434;BME280;57876;47.792;12.960;2023-07-28T12:52:29;96336.22;;;18.64;61.85
70434;BME280;57876;47.792;12.960;2023-07-28T12:54:53;96331.78;;;18.60;61.64